createdAt,value
2023-02-22T00:00:49.876Z,101529.22
2023-02-22T00:03:24.841Z,101523.44
2023-02-22T00:05:55.271Z,101529.22
2023-02-22T00:08:30.304Z,101531.16
2023-02-22T00:10:58.247Z,101527.59
2023-02-22T00:13:29.195Z,101534.16
2023-02-22T00:15:57.856Z,101526.25
2023-02-22T00:18:27.882Z,101516.81
2023-02-22T00:20:59.094Z,101520.63
2023-02-22T00:23:29.974Z,101516.47
2023-02-22T00:25:59.349Z,101522.38
2023-02-22T00:28:27.759Z,101526.38
2023-02-22T00:30:55.696Z,101514.38
2023-02-22T00:33:23.814Z,101527.31
2023-02-22T00:35:51.508Z,101516.34
2023-02-22T00:38:20.557Z,101515.06
2023-02-22T00:40:49.621Z,101516.44
2023-02-22T00:43:17.283Z,101528.94
2023-02-22T00:45:44.930Z,101516.47
2023-02-22T00:48:13.174Z,101512.16
2023-02-22T00:50:40.785Z,101513.69
2023-02-22T00:53:09.315Z,101512.31
2023-02-22T00:55:38.837Z,101511.91
2023-02-22T00:58:08.291Z,101508.63
2023-02-22T01:00:39.761Z,101499.50
2023-02-22T01:03:09.399Z,101500.22
2023-02-22T01:05:38.171Z,101499.53
2023-02-22T01:08:07.742Z,101502.25
2023-02-22T01:10:36.732Z,101510.84
2023-02-22T01:13:08.501Z,101511.13
2023-02-22T01:15:39.701Z,101505.41
2023-02-22T01:18:07.535Z,101503.91
2023-02-22T01:20:35.478Z,101513.91
2023-02-22T01:23:06.549Z,101512.09
2023-02-22T01:25:35.566Z,101506.88
2023-02-22T01:28:05.500Z,101499.41
2023-02-22T01:30:36.135Z,101501.06
2023-02-22T01:33:08.170Z,101490.94
2023-02-22T01:35:38.806Z,101493.41
2023-02-22T01:38:06.429Z,101507.81
2023-02-22T01:40:36.241Z,101496.75
2023-02-22T01:43:06.813Z,101490.81
2023-02-22T01:45:54.412Z,101490.81
2023-02-22T01:48:28.590Z,101484.88
2023-02-22T01:51:00.433Z,101490.16
2023-02-22T01:53:36.781Z,101484.63
2023-02-22T01:56:05.636Z,101448.81
2023-02-22T01:58:35.979Z,101488.75
2023-02-22T02:01:04.014Z,101485.00
2023-02-22T02:03:36.870Z,101471.50
2023-02-22T02:06:11.787Z,101472.38
2023-02-22T02:08:49.750Z,101451.78
2023-02-22T02:11:20.575Z,101469.09
2023-02-22T02:13:50.564Z,101469.94
2023-02-22T02:16:18.685Z,101465.56
2023-02-22T02:18:48.033Z,101476.00
2023-02-22T02:21:44.816Z,101468.38
2023-02-22T02:24:39.577Z,101459.09
2023-02-22T02:27:13.370Z,101455.75
2023-02-22T02:30:14.780Z,101457.47
2023-02-22T02:32:57.993Z,101461.16
2023-02-22T02:35:45.989Z,101455.81
2023-02-22T02:38:23.709Z,101460.03
2023-02-22T02:41:00.042Z,101448.94
2023-02-22T02:43:33.141Z,101459.03
2023-02-22T02:46:07.007Z,101455.34
2023-02-22T02:48:39.828Z,101446.34
2023-02-22T02:51:10.411Z,101444.59
2023-02-22T02:53:42.456Z,101448.06
2023-02-22T02:56:10.025Z,101448.03
2023-02-22T02:58:46.214Z,101440.06
2023-02-22T03:01:18.676Z,101443.50
2023-02-22T03:03:59.594Z,101422.31
2023-02-22T03:06:46.909Z,101438.88
2023-02-22T03:09:27.963Z,101425.66
2023-02-22T03:12:08.735Z,101432.94
2023-02-22T03:14:42.419Z,101428.59
2023-02-22T03:17:19.103Z,101420.91
2023-02-22T03:19:53.124Z,101423.38
2023-02-22T03:22:27.299Z,101395.31
2023-02-22T03:25:02.248Z,101413.72
2023-02-22T03:27:35.966Z,101414.88
2023-02-22T03:30:08.480Z,101421.81
2023-02-22T03:32:42.223Z,101414.31
2023-02-22T03:35:14.924Z,101412.94
2023-02-22T03:37:47.353Z,101405.69
2023-02-22T03:40:26.023Z,101418.47
2023-02-22T03:43:00.383Z,101423.91
2023-02-22T03:45:30.988Z,101417.34
2023-02-22T03:48:04.723Z,101417.91
2023-02-22T03:50:36.732Z,101412.81
2023-02-22T03:53:07.392Z,101412.94
2023-02-22T03:55:35.696Z,101411.88
2023-02-22T03:58:07.527Z,101404.31
2023-02-22T04:00:36.112Z,101409.56
2023-02-22T04:03:04.769Z,101410.34
2023-02-22T04:05:33.792Z,101409.16
2023-02-22T04:08:01.414Z,101402.88
2023-02-22T04:10:29.179Z,101409.09
2023-02-22T04:12:56.768Z,101414.84
2023-02-22T04:15:25.460Z,101418.34
2023-02-22T04:17:53.193Z,101400.53
2023-02-22T04:20:25.469Z,101425.91
2023-02-22T04:22:55.734Z,101427.63
2023-02-22T04:25:24.303Z,101414.31
2023-02-22T04:27:52.638Z,101420.72
2023-02-22T04:30:20.997Z,101423.09
2023-02-22T04:32:48.926Z,101405.53
2023-02-22T04:35:16.531Z,101409.53
2023-02-22T04:37:44.197Z,101407.69
2023-02-22T04:40:13.426Z,101413.00
2023-02-22T04:42:41.205Z,101402.25
2023-02-22T04:45:10.403Z,101413.00
2023-02-22T04:47:38.584Z,101411.53
2023-02-22T04:50:07.823Z,101409.66
2023-02-22T04:52:35.506Z,101414.75
2023-02-22T04:55:03.323Z,101406.91
2023-02-22T04:57:32.445Z,101406.66
2023-02-22T05:00:00.250Z,101407.88
2023-02-22T05:02:28.024Z,101392.63
2023-02-22T05:04:55.758Z,101391.03
2023-02-22T05:07:23.449Z,101407.09
2023-02-22T05:09:51.113Z,101404.38
2023-02-22T05:12:18.741Z,101406.47
2023-02-22T05:14:47.782Z,101399.38
2023-02-22T05:17:15.686Z,101415.28
2023-02-22T05:19:43.354Z,101399.03
2023-02-22T05:22:10.975Z,101399.22
2023-02-22T05:24:38.611Z,101401.56
2023-02-22T05:27:06.258Z,101398.72
2023-02-22T05:29:33.905Z,101395.59
2023-02-22T05:32:03.240Z,101396.50
2023-02-22T05:34:30.975Z,101400.59
2023-02-22T05:36:58.570Z,101385.94
2023-02-22T05:39:26.178Z,101385.75
2023-02-22T05:41:53.787Z,101394.78
2023-02-22T05:44:21.429Z,101385.94
2023-02-22T05:46:49.191Z,101378.56
2023-02-22T05:49:18.647Z,101380.16
2023-02-22T05:51:46.252Z,101385.16
2023-02-22T05:54:13.928Z,101372.88
2023-02-22T05:56:41.610Z,101371.97
2023-02-22T05:59:09.216Z,101366.06
2023-02-22T06:01:36.883Z,101364.41
2023-02-22T06:04:04.566Z,101376.19
2023-02-22T06:06:33.538Z,101368.91
2023-02-22T06:09:01.580Z,101373.84
2023-02-22T06:11:29.219Z,101381.75
2023-02-22T06:13:56.814Z,101382.84
2023-02-22T06:16:24.663Z,101382.84
2023-02-22T06:18:52.339Z,101379.88
2023-02-22T06:21:20.046Z,101366.88
2023-02-22T06:23:49.061Z,101378.69
2023-02-22T06:26:18.328Z,101377.78
2023-02-22T06:28:46.244Z,101371.78
2023-02-22T06:31:13.904Z,101376.19
2023-02-22T06:33:41.675Z,101377.03
2023-02-22T06:36:10.548Z,101376.19
2023-02-22T06:38:38.149Z,101391.56
2023-02-22T06:41:07.192Z,101381.06
2023-02-22T06:43:34.787Z,101385.38
2023-02-22T06:46:02.398Z,101386.63
2023-02-22T06:48:30.058Z,101389.06
2023-02-22T06:50:57.767Z,101393.31
2023-02-22T06:53:25.475Z,101387.31
2023-02-22T06:55:55.848Z,101389.84
2023-02-22T06:58:24.814Z,101371.19
2023-02-22T07:00:52.425Z,101397.59
2023-02-22T07:03:20.105Z,101391.59
2023-02-22T07:05:47.947Z,101369.41
2023-02-22T07:08:15.547Z,101391.03
2023-02-22T07:10:43.127Z,101387.78
2023-02-22T07:13:10.764Z,101385.84
2023-02-22T07:15:39.780Z,101392.50
2023-02-22T07:18:07.906Z,101387.22
2023-02-22T07:20:36.234Z,101390.75
2023-02-22T07:23:03.890Z,101403.28
2023-02-22T07:25:32.063Z,101389.91
2023-02-22T07:28:00.443Z,101390.00
2023-02-22T07:30:31.100Z,101388.09
2023-02-22T07:33:01.620Z,101388.94
2023-02-22T07:35:30.996Z,101400.94
2023-02-22T07:37:59.307Z,101383.16
2023-02-22T07:40:28.476Z,101388.81
2023-02-22T07:42:59.368Z,101384.84
2023-02-22T07:45:29.324Z,101372.16
2023-02-22T07:47:57.031Z,101382.34
2023-02-22T07:50:27.554Z,101383.16
2023-02-22T07:52:57.506Z,101379.78
2023-02-22T07:55:27.189Z,101372.09
2023-02-22T07:57:57.240Z,101378.16
2023-02-22T08:00:27.003Z,101379.97
2023-02-22T08:02:54.692Z,101380.53
2023-02-22T08:05:24.617Z,101378.59
2023-02-22T08:07:53.636Z,101373.66
2023-02-22T08:10:23.559Z,101341.16
2023-02-22T08:12:51.752Z,101365.09
2023-02-22T08:15:22.075Z,101357.44
2023-02-22T08:17:49.736Z,101368.13
2023-02-22T08:20:18.072Z,101365.44
2023-02-22T08:22:46.079Z,101357.22
2023-02-22T08:25:16.625Z,101361.22
2023-02-22T08:27:44.805Z,101352.88
2023-02-22T08:30:15.780Z,101355.88
2023-02-22T08:32:43.693Z,101352.28
2023-02-22T08:35:13.609Z,101345.78
2023-02-22T08:37:43.570Z,101350.50
2023-02-22T08:40:13.957Z,101353.09
2023-02-22T08:42:43.932Z,101370.78
2023-02-22T08:45:13.321Z,101364.44
2023-02-22T08:47:41.128Z,101357.72
2023-02-22T08:50:11.075Z,101357.34
2023-02-22T08:52:38.656Z,101360.31
2023-02-22T08:55:07.202Z,101361.59
2023-02-22T08:57:35.185Z,101361.50
2023-02-22T09:00:05.051Z,101349.81
2023-02-22T09:02:32.733Z,101357.31
2023-02-22T09:05:00.341Z,101354.00
2023-02-22T09:07:27.959Z,101352.94
2023-02-22T09:09:55.590Z,101354.38
2023-02-22T09:12:23.233Z,101351.28
2023-02-22T09:14:50.925Z,101359.75
2023-02-22T09:17:20.129Z,101344.44
2023-02-22T09:19:47.742Z,101346.91
2023-02-22T09:22:15.371Z,101350.72
2023-02-22T09:24:43.527Z,101350.69
2023-02-22T09:27:12.208Z,101344.00
2023-02-22T09:29:40.442Z,101340.97
2023-02-22T09:32:08.132Z,101334.97
2023-02-22T09:34:37.246Z,101346.88
2023-02-22T09:37:08.691Z,101342.34
2023-02-22T09:39:37.581Z,101345.34
2023-02-22T09:42:13.787Z,101334.53
2023-02-22T09:44:49.107Z,101329.38
2023-02-22T09:47:19.519Z,101328.97
2023-02-22T09:49:57.839Z,101321.28
2023-02-22T09:52:29.579Z,101332.16
2023-02-22T09:55:08.788Z,101318.84
2023-02-22T09:57:40.498Z,101332.41
2023-02-22T10:00:16.740Z,101337.53
2023-02-22T10:02:49.905Z,101331.63
2023-02-22T10:05:27.556Z,101312.47
2023-02-22T10:07:59.733Z,101315.44
2023-02-22T10:10:33.522Z,101316.34
2023-02-22T10:13:09.269Z,101307.19
2023-02-22T10:15:52.204Z,101303.50
2023-02-22T10:18:55.071Z,101276.88
2023-02-22T10:21:41.640Z,101292.41
2023-02-22T10:24:18.879Z,101295.75
2023-02-22T10:26:47.192Z,101290.25
2023-02-22T10:29:22.120Z,101280.91
2023-02-22T10:31:57.009Z,101287.13
2023-02-22T10:34:28.164Z,101284.53
2023-02-22T10:37:04.072Z,101280.78
2023-02-22T10:39:34.320Z,101271.78
2023-02-22T10:42:06.838Z,101269.97
2023-02-22T10:44:34.512Z,101256.09
2023-02-22T10:47:04.623Z,101246.03
2023-02-22T10:49:38.341Z,101253.84
2023-02-22T10:52:15.611Z,101246.81
2023-02-22T10:54:47.929Z,101244.31
2023-02-22T10:57:20.586Z,101245.09
2023-02-22T10:59:48.411Z,101244.28
2023-02-22T11:02:21.100Z,101239.03
2023-02-22T11:04:50.611Z,101234.47
2023-02-22T11:07:27.177Z,101231.16
2023-02-22T11:09:57.011Z,101230.94
2023-02-22T11:12:32.005Z,101238.88
2023-02-22T11:15:29.545Z,101239.13
2023-02-22T11:18:01.289Z,101243.34
2023-02-22T11:20:34.421Z,101239.66
2023-02-22T11:23:08.109Z,101231.03
2023-02-22T11:25:38.195Z,101231.44
2023-02-22T11:28:10.769Z,101213.44
2023-02-22T11:30:39.225Z,101222.13
2023-02-22T11:33:23.309Z,101214.78
2023-02-22T11:35:53.115Z,101193.03
2023-02-22T11:38:24.141Z,101205.56
2023-02-22T11:41:15.502Z,101195.81
2023-02-22T11:43:43.993Z,101199.53
2023-02-22T11:46:15.039Z,101197.03
2023-02-22T11:48:48.459Z,101182.19
2023-02-22T11:51:35.704Z,101180.31
2023-02-22T11:54:28.908Z,101166.34
2023-02-22T11:57:11.073Z,101168.00
2023-02-22T11:59:48.592Z,101166.31
2023-02-22T12:02:31.432Z,101161.25
2023-02-22T12:05:19.777Z,101157.75
2023-02-22T12:08:03.195Z,101161.03
2023-02-22T12:10:48.355Z,101138.84
2023-02-22T12:13:28.092Z,101141.44
2023-02-22T12:16:03.141Z,101136.41
2023-02-22T12:18:36.674Z,101140.88
2023-02-22T12:21:09.996Z,101134.84
2023-02-22T12:23:45.807Z,101130.63
2023-02-22T12:26:20.131Z,101131.38
2023-02-22T12:28:52.926Z,101123.22
2023-02-22T12:31:25.181Z,101126.66
2023-02-22T12:34:01.425Z,101121.09
2023-02-22T12:36:37.455Z,101128.13
2023-02-22T12:39:14.838Z,101122.34
2023-02-22T12:41:49.305Z,101124.78
2023-02-22T12:44:23.022Z,101114.81
2023-02-22T12:46:53.386Z,101119.91
2023-02-22T12:49:31.643Z,101111.75
2023-02-22T12:52:15.898Z,101122.38
2023-02-22T12:54:56.325Z,101112.38
2023-02-22T12:57:35.194Z,101112.38
2023-02-22T13:00:07.707Z,101110.63
2023-02-22T13:02:39.473Z,101106.41
2023-02-22T13:05:08.050Z,101099.22
2023-02-22T13:07:48.489Z,101096.88
2023-02-22T13:10:34.415Z,101100.59
2023-02-22T13:13:13.231Z,101093.41
2023-02-22T13:15:47.199Z,101097.78
2023-02-22T13:18:23.510Z,101090.72
2023-02-22T13:20:58.629Z,101093.13
2023-02-22T13:23:39.136Z,101086.06
2023-02-22T13:26:16.526Z,101085.25
2023-02-22T13:28:50.174Z,101090.09
2023-02-22T13:31:38.213Z,101082.16
2023-02-22T13:34:31.224Z,101087.47
2023-02-22T13:37:17.644Z,101085.47
2023-02-22T13:40:03.682Z,101071.78
2023-02-22T13:42:54.029Z,101073.94
2023-02-22T13:45:55.735Z,101079.28
2023-02-22T13:48:44.847Z,101080.25
2023-02-22T13:51:20.604Z,101071.03
2023-02-22T13:53:56.264Z,101063.13
2023-02-22T13:56:26.115Z,101077.44
2023-02-22T13:58:56.538Z,101069.16
2023-02-22T14:01:45.598Z,101063.41
2023-02-22T14:04:39.618Z,101069.97
2023-02-22T14:07:46.656Z,101060.72
2023-02-22T14:10:52.665Z,101067.63
2023-02-22T14:13:22.476Z,101065.13
2023-02-22T14:16:22.619Z,101062.91
2023-02-22T14:19:02.946Z,101060.72
2023-02-22T14:21:30.563Z,101060.56
2023-02-22T14:24:09.126Z,101048.13
2023-02-22T14:26:38.812Z,101056.72
2023-02-22T14:29:17.655Z,101061.06
2023-02-22T14:32:10.588Z,101052.69
2023-02-22T14:34:48.756Z,101052.13
2023-02-22T14:37:19.451Z,101054.31
2023-02-22T14:39:51.199Z,101055.31
2023-02-22T14:42:24.023Z,101044.31
2023-02-22T14:44:58.255Z,101042.38
2023-02-22T14:47:30.649Z,101044.16
2023-02-22T14:50:06.200Z,101029.78
2023-02-22T14:52:37.867Z,101035.31
2023-02-22T14:55:18.782Z,101038.75
2023-02-22T14:57:56.787Z,101037.13
2023-02-22T15:00:31.545Z,101034.88
2023-02-22T15:03:00.570Z,101039.66
2023-02-22T15:05:35.168Z,101029.78
2023-02-22T15:08:06.267Z,101034.47
2023-02-22T15:10:42.887Z,101030.25
2023-02-22T15:13:18.606Z,101023.16
2023-02-22T15:15:49.326Z,101023.34
2023-02-22T15:18:22.989Z,101023.38
2023-02-22T15:20:57.590Z,101018.59
2023-02-22T15:23:30.169Z,101011.03
2023-02-22T15:25:58.510Z,101011.16
2023-02-22T15:28:30.838Z,101020.09
2023-02-22T15:31:25.900Z,101008.88
2023-02-22T15:33:55.307Z,101014.75
2023-02-22T15:36:28.148Z,101019.22
2023-02-22T15:38:58.996Z,101012.53
2023-02-22T15:41:31.409Z,101013.44
2023-02-22T15:44:05.457Z,101014.41
2023-02-22T15:46:36.191Z,100992.25
2023-02-22T15:49:19.272Z,101014.19
2023-02-22T15:51:52.465Z,101013.91
2023-02-22T15:54:27.331Z,101025.59
2023-02-22T15:56:56.580Z,101018.84
2023-02-22T15:59:30.317Z,100990.06
2023-02-22T16:02:00.449Z,101015.91
2023-02-22T16:04:30.351Z,101022.72
2023-02-22T16:07:16.696Z,101016.63
2023-02-22T16:09:49.354Z,101020.41
2023-02-22T16:12:28.720Z,101028.50
2023-02-22T16:14:57.413Z,101027.13
2023-02-22T16:17:30.889Z,101034.97
2023-02-22T16:20:00.318Z,101034.09
2023-02-22T16:22:34.600Z,101035.31
2023-02-22T16:25:25.015Z,101011.78
2023-02-22T16:27:55.874Z,101014.84
2023-02-22T16:30:27.251Z,101026.75
2023-02-22T16:32:56.619Z,101020.69
2023-02-22T16:35:28.654Z,101027.13
2023-02-22T16:38:01.202Z,101033.19
2023-02-22T16:40:32.408Z,101005.88
2023-02-22T16:43:02.539Z,101029.03
2023-02-22T16:45:30.158Z,101040.75
2023-02-22T16:47:58.038Z,101038.25
2023-02-22T16:50:25.649Z,101040.63
2023-02-22T16:52:58.474Z,101049.53
2023-02-22T16:55:27.955Z,101043.28
2023-02-22T16:58:03.998Z,101046.50
2023-02-22T17:00:34.685Z,101044.41
2023-02-22T17:03:04.598Z,101044.91
2023-02-22T17:05:36.018Z,101048.13
2023-02-22T17:08:04.056Z,101056.31
2023-02-22T17:10:33.159Z,101055.88
2023-02-22T17:13:12.706Z,101057.16
2023-02-22T17:15:48.050Z,101057.88
2023-02-22T17:18:22.362Z,101060.66
2023-02-22T17:20:50.933Z,101060.78
2023-02-22T17:23:19.613Z,101063.56
2023-02-22T17:25:53.379Z,101070.66
2023-02-22T17:28:22.020Z,101070.94
2023-02-22T17:30:51.453Z,101072.84
2023-02-22T17:33:21.361Z,101076.38
2023-02-22T17:35:49.423Z,101077.28
2023-02-22T17:38:18.671Z,101076.38
2023-02-22T17:40:49.089Z,101070.72
2023-02-22T17:43:19.276Z,101068.06
2023-02-22T17:45:47.837Z,101075.25
2023-02-22T17:48:17.610Z,101064.69
2023-02-22T17:50:46.674Z,101076.81
2023-02-22T17:53:14.727Z,101072.47
2023-02-22T17:55:43.279Z,101082.50
2023-02-22T17:58:14.557Z,101079.59
2023-02-22T18:00:44.854Z,101066.72
2023-02-22T18:03:15.979Z,101075.44
2023-02-22T18:05:46.189Z,101076.66
2023-02-22T18:08:14.894Z,101083.38
2023-02-22T18:10:43.710Z,101070.66
2023-02-22T18:13:16.605Z,101069.31
2023-02-22T18:15:45.418Z,101054.13
2023-02-22T18:18:13.541Z,101079.22
2023-02-22T18:20:43.831Z,101073.47
2023-02-22T18:23:14.571Z,101078.44
2023-02-22T18:25:57.137Z,101077.16
2023-02-22T18:28:33.039Z,101081.44
2023-02-22T18:31:00.733Z,101076.19
2023-02-22T18:33:28.382Z,101081.06
2023-02-22T18:35:55.990Z,101074.75
2023-02-22T18:38:24.509Z,101083.16
2023-02-22T18:41:00.510Z,101056.16
2023-02-22T18:43:28.502Z,101073.16
2023-02-22T18:46:06.411Z,101067.13
2023-02-22T18:48:34.134Z,101071.75
2023-02-22T18:51:02.361Z,101068.94
2023-02-22T18:53:30.093Z,101069.84
2023-02-22T18:55:57.715Z,101068.53
2023-02-22T18:58:25.362Z,101073.97
2023-02-22T19:00:52.959Z,101065.72
2023-02-22T19:03:21.932Z,101056.78
2023-02-22T19:05:52.145Z,101073.22
2023-02-22T19:08:19.919Z,101073.97
2023-02-22T19:10:49.406Z,101076.81
2023-02-22T19:13:17.135Z,101074.00
2023-02-22T19:15:44.857Z,101074.22
2023-02-22T19:18:12.877Z,101070.06
2023-02-22T19:20:41.896Z,101071.44
2023-02-22T19:23:10.390Z,101072.22
2023-02-22T19:25:41.095Z,101068.34
2023-02-22T19:28:08.706Z,101069.06
2023-02-22T19:30:36.326Z,101067.34
2023-02-22T19:33:04.844Z,101071.25
2023-02-22T19:35:32.700Z,101067.97
2023-02-22T19:38:01.757Z,101060.63
2023-02-22T19:40:30.373Z,101035.84
2023-02-22T19:42:58.769Z,101054.88
2023-02-22T19:45:26.497Z,101064.47
2023-02-22T19:47:55.830Z,101050.78
2023-02-22T19:50:23.901Z,101056.41
2023-02-22T19:52:53.444Z,101059.88
2023-02-22T19:55:22.552Z,101048.06
2023-02-22T19:57:51.072Z,101046.41
2023-02-22T20:00:24.345Z,101039.06
2023-02-22T20:03:05.498Z,101046.13
2023-02-22T20:05:33.819Z,101039.69
2023-02-22T20:08:01.447Z,101017.72
2023-02-22T20:10:30.967Z,101036.72
2023-02-22T20:12:58.561Z,101041.63
2023-02-22T20:15:27.935Z,101036.31
2023-02-22T20:17:58.083Z,101026.38
2023-02-22T20:20:28.973Z,101041.09
2023-02-22T20:22:57.924Z,101043.06
2023-02-22T20:25:26.657Z,101039.56
2023-02-22T20:27:56.432Z,101045.41
2023-02-22T20:30:24.079Z,101039.72
2023-02-22T20:32:51.835Z,101037.25
2023-02-22T20:35:20.483Z,101038.44
2023-02-22T20:37:48.137Z,101048.22
2023-02-22T20:40:15.921Z,101044.00
2023-02-22T20:42:44.836Z,101044.53
2023-02-22T20:45:18.806Z,101042.47
2023-02-22T20:47:47.743Z,101034.72
2023-02-22T20:50:18.317Z,101046.91
2023-02-22T20:52:45.958Z,101033.13
2023-02-22T20:55:14.794Z,101040.03
2023-02-22T20:57:42.712Z,100984.97
2023-02-22T21:00:13.066Z,101035.00
2023-02-22T21:02:42.308Z,101043.41
2023-02-22T21:05:10.556Z,101036.97
2023-02-22T21:07:38.164Z,101043.91
2023-02-22T21:10:06.921Z,101039.69
2023-02-22T21:12:36.243Z,101035.94
2023-02-22T21:15:07.673Z,101039.47
2023-02-22T21:17:36.773Z,101036.59
2023-02-22T21:20:12.253Z,101031.75
2023-02-22T21:22:39.886Z,101037.16
2023-02-22T21:25:07.877Z,101030.63
2023-02-22T21:27:35.478Z,101026.94
2023-02-22T21:30:03.152Z,101032.88
2023-02-22T21:32:30.768Z,101036.13
2023-02-22T21:34:58.351Z,101041.88
2023-02-22T21:37:28.669Z,101031.19
2023-02-22T21:39:58.322Z,101026.34
2023-02-22T21:42:25.928Z,101041.25
2023-02-22T21:44:56.145Z,101040.66
2023-02-22T21:47:24.118Z,101013.31
2023-02-22T21:49:51.741Z,101048.53
2023-02-22T21:52:19.616Z,101043.97
2023-02-22T21:54:49.009Z,101044.31
2023-02-22T21:57:16.787Z,101040.50
2023-02-22T21:59:44.418Z,101043.56
2023-02-22T22:02:12.174Z,101040.06
2023-02-22T22:04:39.770Z,101032.78
2023-02-22T22:07:07.385Z,101033.50
2023-02-22T22:09:37.957Z,101033.50
2023-02-22T22:12:10.078Z,101025.88
2023-02-22T22:14:38.618Z,101030.56
2023-02-22T22:17:09.292Z,101034.00
2023-02-22T22:19:40.360Z,101036.72
2023-02-22T22:22:08.341Z,101038.84
2023-02-22T22:24:35.945Z,101047.13
2023-02-22T22:27:06.441Z,101039.63
2023-02-22T22:29:35.461Z,101036.50
2023-02-22T22:32:03.365Z,101038.63
2023-02-22T22:34:33.955Z,101031.59
2023-02-22T22:37:01.571Z,101031.81
2023-02-22T22:39:29.344Z,101025.78
2023-02-22T22:41:56.937Z,101029.56
2023-02-22T22:44:24.564Z,101037.84
2023-02-22T22:46:54.752Z,101037.28
2023-02-22T22:49:25.329Z,101026.09
2023-02-22T22:51:53.463Z,101024.44
2023-02-22T22:54:21.091Z,101019.78
2023-02-22T22:56:48.736Z,101021.19
2023-02-22T22:59:16.331Z,101022.19
2023-02-22T23:01:45.341Z,101019.75
2023-02-22T23:04:17.151Z,101025.91
2023-02-22T23:06:46.894Z,101035.84
2023-02-22T23:09:18.550Z,101025.44
2023-02-22T23:11:50.720Z,101037.53
2023-02-22T23:14:21.121Z,101020.59
2023-02-22T23:16:50.016Z,101028.09
2023-02-22T23:19:20.141Z,101028.72
2023-02-22T23:21:49.027Z,101028.81
2023-02-22T23:24:19.070Z,101035.47
2023-02-22T23:26:49.289Z,101029.06
2023-02-22T23:29:17.788Z,101025.88
2023-02-22T23:31:48.079Z,101025.63
2023-02-22T23:34:16.077Z,101024.03
2023-02-22T23:36:45.419Z,101031.41
2023-02-22T23:39:14.176Z,101016.50
2023-02-22T23:41:42.443Z,101008.59
2023-02-22T23:44:13.977Z,101019.88
2023-02-22T23:46:41.588Z,101029.03
2023-02-22T23:49:10.290Z,101036.25
2023-02-22T23:51:39.972Z,101025.25
2023-02-22T23:54:12.398Z,101027.03
2023-02-22T23:56:47.024Z,101029.38
2023-02-22T23:59:15.711Z,101026.97
